Bluffton, South Carolina
Current Conditions -  °F | °C
As of 11:35 PM on Saturday 22 Nov 2014 (Local Time) from KHXD Reporting Station
Haze Haze  
Wind Chill: 59°   Ceiling: Unl
Heat Index: 59°   Visibility: 6mi
Dew Point: 57°   Wind: 7mph
Humidity: 94%   Direction: 30°NNE
Pressure: 30.27"   Gusts: NA
Location:  32.24°N, 80.86°W
Report Text: KHXD 230435Z AUTO 03006KT 6SM BR CLR 15/14 A3027 RMK AO2 P0000
Loading
Personal Weather Stations






























Interactive Weather Map New forecast layout! Learn more

10-Day Weather Forecast

Advertisements
Track Severe Weather on mobile